sensor_id;sensor_type;location;lat;lon;timestamp;P1;durP1;ratioP1;P2;durP2;ratioP2
65855;SDS011;52631;42.208;24.656;2024-02-28T00:01:20;15.23;;;6.05;;
65855;SDS011;52631;42.208;24.656;2024-02-28T00:03:45;19.88;;;6.50;;
65855;SDS011;52631;42.208;24.656;2024-02-28T00:06:11;17.80;;;7.45;;
65855;SDS011;52631;42.208;24.656;2024-02-28T00:08:37;18.55;;;7.25;;
65855;SDS011;52631;42.208;24.656;2024-02-28T00:11:02;14.25;;;6.60;;
65855;SDS011;52631;42.208;24.656;2024-02-28T00:13:28;17.17;;;8.18;;
65855;SDS011;52631;42.208;24.656;2024-02-28T00:15:53;17.65;;;7.72;;
65855;SDS011;52631;42.208;24.656;2024-02-28T00:18:19;17.73;;;7.18;;
65855;SDS011;52631;42.208;24.656;2024-02-28T00:20:44;17.70;;;7.25;;
65855;SDS011;52631;42.208;24.656;2024-02-28T00:23:10;18.50;;;6.72;;
65855;SDS011;52631;42.208;24.656;2024-02-28T00:25:35;18.98;;;7.25;;
65855;SDS011;52631;42.208;24.656;2024-02-28T00:28:01;14.68;;;6.30;;
65855;SDS011;52631;42.208;24.656;2024-02-28T00:30:26;24.15;;;8.40;;
65855;SDS011;52631;42.208;24.656;2024-02-28T00:32:53;20.15;;;6.20;;
65855;SDS011;52631;42.208;24.656;2024-02-28T00:35:19;17.15;;;6.53;;
65855;SDS011;52631;42.208;24.656;2024-02-28T00:37:44;19.98;;;6.65;;
65855;SDS011;52631;42.208;24.656;2024-02-28T00:40:10;16.52;;;6.22;;
65855;SDS011;52631;42.208;24.656;2024-02-28T00:42:36;13.55;;;6.68;;
65855;SDS011;52631;42.208;24.656;2024-02-28T00:45:02;18.15;;;7.47;;
65855;SDS011;52631;42.208;24.656;2024-02-28T00:47:27;21.67;;;7.78;;
65855;SDS011;52631;42.208;24.656;2024-02-28T00:49:53;18.70;;;8.48;;
65855;SDS011;52631;42.208;24.656;2024-02-28T00:52:18;25.77;;;10.63;;
65855;SDS011;52631;42.208;24.656;2024-02-28T00:54:44;39.67;;;15.98;;
65855;SDS011;52631;42.208;24.656;2024-02-28T00:57:10;39.60;;;16.27;;
65855;SDS011;52631;42.208;24.656;2024-02-28T00:59:35;44.28;;;16.27;;
65855;SDS011;52631;42.208;24.656;2024-02-28T01:02:00;36.90;;;12.13;;
65855;SDS011;52631;42.208;24.656;2024-02-28T01:04:28;23.85;;;9.23;;
65855;SDS011;52631;42.208;24.656;2024-02-28T01:06:53;29.73;;;10.52;;
65855;SDS011;52631;42.208;24.656;2024-02-28T01:09:19;28.80;;;11.88;;
65855;SDS011;52631;42.208;24.656;2024-02-28T01:11:45;23.42;;;9.07;;
65855;SDS011;52631;42.208;24.656;2024-02-28T01:14:10;20.23;;;8.20;;
65855;SDS011;52631;42.208;24.656;2024-02-28T01:16:36;16.55;;;7.05;;
65855;SDS011;52631;42.208;24.656;2024-02-28T01:19:02;13.95;;;5.85;;
65855;SDS011;52631;42.208;24.656;2024-02-28T01:21:28;11.80;;;5.97;;
65855;SDS011;52631;42.208;24.656;2024-02-28T01:23:53;15.18;;;6.43;;
65855;SDS011;52631;42.208;24.656;2024-02-28T01:26:19;14.55;;;5.35;;
65855;SDS011;52631;42.208;24.656;2024-02-28T01:28:47;13.80;;;5.95;;
65855;SDS011;52631;42.208;24.656;2024-02-28T01:31:12;13.98;;;6.22;;
65855;SDS011;52631;42.208;24.656;2024-02-28T01:33:38;16.80;;;6.07;;
65855;SDS011;52631;42.208;24.656;2024-02-28T01:36:06;15.60;;;7.40;;
65855;SDS011;52631;42.208;24.656;2024-02-28T01:38:31;16.55;;;6.97;;
65855;SDS011;52631;42.208;24.656;2024-02-28T01:40:57;32.40;;;14.07;;
65855;SDS011;52631;42.208;24.656;2024-02-28T01:43:22;37.10;;;16.58;;
65855;SDS011;52631;42.208;24.656;2024-02-28T01:45:48;54.63;;;19.90;;
65855;SDS011;52631;42.208;24.656;2024-02-28T01:48:14;70.47;;;25.75;;
65855;SDS011;52631;42.208;24.656;2024-02-28T01:50:40;94.05;;;33.38;;
65855;SDS011;52631;42.208;24.656;2024-02-28T01:53:06;146.77;;;50.67;;
65855;SDS011;52631;42.208;24.656;2024-02-28T01:55:38;152.25;;;50.92;;
65855;SDS011;52631;42.208;24.656;2024-02-28T01:58:04;181.45;;;59.58;;
65855;SDS011;52631;42.208;24.656;2024-02-28T02:00:30;170.90;;;62.80;;
65855;SDS011;52631;42.208;24.656;2024-02-28T02:02:58;170.50;;;62.08;;
65855;SDS011;52631;42.208;24.656;2024-02-28T02:05:25;172.02;;;59.55;;
65855;SDS011;52631;42.208;24.656;2024-02-28T02:07:50;167.70;;;58.83;;
65855;SDS011;52631;42.208;24.656;2024-02-28T02:10:16;161.52;;;56.20;;
65855;SDS011;52631;42.208;24.656;2024-02-28T02:12:41;134.02;;;48.20;;
65855;SDS011;52631;42.208;24.656;2024-02-28T02:15:07;138.70;;;51.78;;
65855;SDS011;52631;42.208;24.656;2024-02-28T02:17:33;127.40;;;45.60;;
65855;SDS011;52631;42.208;24.656;2024-02-28T02:19:58;105.63;;;35.83;;
65855;SDS011;52631;42.208;24.656;2024-02-28T02:22:23;91.20;;;32.65;;
65855;SDS011;52631;42.208;24.656;2024-02-28T02:24:52;77.82;;;29.20;;
65855;SDS011;52631;42.208;24.656;2024-02-28T02:27:17;71.00;;;26.45;;
65855;SDS011;52631;42.208;24.656;2024-02-28T02:29:43;70.35;;;36.15;;
65855;SDS011;52631;42.208;24.656;2024-02-28T02:32:08;65.65;;;25.65;;
65855;SDS011;52631;42.208;24.656;2024-02-28T02:34:34;58.33;;;22.10;;
65855;SDS011;52631;42.208;24.656;2024-02-28T02:36:59;58.72;;;21.98;;
65855;SDS011;52631;42.208;24.656;2024-02-28T02:39:24;55.13;;;17.95;;
65855;SDS011;52631;42.208;24.656;2024-02-28T02:41:50;45.80;;;16.25;;
65855;SDS011;52631;42.208;24.656;2024-02-28T02:44:15;43.03;;;16.38;;
65855;SDS011;52631;42.208;24.656;2024-02-28T02:46:41;46.65;;;16.88;;
65855;SDS011;52631;42.208;24.656;2024-02-28T02:49:07;57.13;;;22.77;;
65855;SDS011;52631;42.208;24.656;2024-02-28T02:51:32;52.38;;;20.73;;
65855;SDS011;52631;42.208;24.656;2024-02-28T02:53:58;49.28;;;20.77;;
65855;SDS011;52631;42.208;24.656;2024-02-28T02:56:23;52.58;;;21.17;;
65855;SDS011;52631;42.208;24.656;2024-02-28T02:58:49;39.80;;;15.38;;
65855;SDS011;52631;42.208;24.656;2024-02-28T03:01:14;46.92;;;15.38;;
65855;SDS011;52631;42.208;24.656;2024-02-28T03:03:40;47.03;;;17.42;;
65855;SDS011;52631;42.208;24.656;2024-02-28T03:06:05;40.35;;;15.85;;
65855;SDS011;52631;42.208;24.656;2024-02-28T03:08:31;45.30;;;16.08;;
65855;SDS011;52631;42.208;24.656;2024-02-28T03:10:56;38.75;;;16.00;;
65855;SDS011;52631;42.208;24.656;2024-02-28T03:13:22;44.08;;;20.38;;
65855;SDS011;52631;42.208;24.656;2024-02-28T03:15:47;45.75;;;16.67;;
65855;SDS011;52631;42.208;24.656;2024-02-28T03:18:13;44.55;;;16.25;;
65855;SDS011;52631;42.208;24.656;2024-02-28T03:20:39;46.10;;;17.48;;
65855;SDS011;52631;42.208;24.656;2024-02-28T03:23:05;44.33;;;17.77;;
65855;SDS011;52631;42.208;24.656;2024-02-28T03:25:33;39.10;;;16.30;;
65855;SDS011;52631;42.208;24.656;2024-02-28T03:27:59;45.13;;;17.30;;
65855;SDS011;52631;42.208;24.656;2024-02-28T03:30:24;41.45;;;15.80;;
65855;SDS011;52631;42.208;24.656;2024-02-28T03:32:50;38.17;;;15.43;;
65855;SDS011;52631;42.208;24.656;2024-02-28T03:35:16;38.17;;;14.95;;
65855;SDS011;52631;42.208;24.656;2024-02-28T03:37:41;36.78;;;15.65;;
65855;SDS011;52631;42.208;24.656;2024-02-28T03:40:07;44.10;;;15.70;;
65855;SDS011;52631;42.208;24.656;2024-02-28T03:42:32;36.63;;;15.63;;
65855;SDS011;52631;42.208;24.656;2024-02-28T03:44:58;43.70;;;17.25;;
65855;SDS011;52631;42.208;24.656;2024-02-28T03:47:23;46.00;;;17.52;;
65855;SDS011;52631;42.208;24.656;2024-02-28T03:49:50;37.47;;;15.95;;
65855;SDS011;52631;42.208;24.656;2024-02-28T03:52:15;35.25;;;14.40;;
65855;SDS011;52631;42.208;24.656;2024-02-28T03:54:44;31.55;;;12.93;;
65855;SDS011;52631;42.208;24.656;2024-02-28T03:57:10;28.65;;;11.90;;
65855;SDS011;52631;42.208;24.656;2024-02-28T03:59:35;36.00;;;11.65;;
65855;SDS011;52631;42.208;24.656;2024-02-28T04:02:01;24.25;;;10.77;;
65855;SDS011;52631;42.208;24.656;2024-02-28T04:04:27;23.40;;;11.05;;
65855;SDS011;52631;42.208;24.656;2024-02-28T04:06:52;22.60;;;8.88;;
65855;SDS011;52631;42.208;24.656;2024-02-28T04:09:17;21.65;;;8.05;;
65855;SDS011;52631;42.208;24.656;2024-02-28T04:11:43;17.50;;;7.15;;
65855;SDS011;52631;42.208;24.656;2024-02-28T04:14:09;14.05;;;7.15;;
65855;SDS011;52631;42.208;24.656;2024-02-28T04:16:34;18.05;;;7.65;;
65855;SDS011;52631;42.208;24.656;2024-02-28T04:19:00;12.63;;;6.93;;
65855;SDS011;52631;42.208;24.656;2024-02-28T04:21:25;18.30;;;7.63;;
65855;SDS011;52631;42.208;24.656;2024-02-28T04:23:50;22.17;;;7.50;;
65855;SDS011;52631;42.208;24.656;2024-02-28T04:26:16;16.27;;;6.78;;
65855;SDS011;52631;42.208;24.656;2024-02-28T04:28:42;18.05;;;7.85;;
65855;SDS011;52631;42.208;24.656;2024-02-28T04:31:07;20.55;;;8.88;;
65855;SDS011;52631;42.208;24.656;2024-02-28T04:33:34;23.98;;;8.75;;
65855;SDS011;52631;42.208;24.656;2024-02-28T04:36:01;24.42;;;8.90;;
65855;SDS011;52631;42.208;24.656;2024-02-28T04:38:26;19.13;;;7.65;;
65855;SDS011;52631;42.208;24.656;2024-02-28T04:40:52;17.92;;;9.18;;
65855;SDS011;52631;42.208;24.656;2024-02-28T04:43:17;18.98;;;8.73;;
65855;SDS011;52631;42.208;24.656;2024-02-28T04:45:42;23.60;;;8.73;;
65855;SDS011;52631;42.208;24.656;2024-02-28T04:48:08;22.30;;;8.40;;
65855;SDS011;52631;42.208;24.656;2024-02-28T04:50:33;19.70;;;8.18;;
65855;SDS011;52631;42.208;24.656;2024-02-28T04:52:59;17.92;;;7.97;;
65855;SDS011;52631;42.208;24.656;2024-02-28T04:55:24;18.45;;;7.85;;
65855;SDS011;52631;42.208;24.656;2024-02-28T04:57:50;20.50;;;8.55;;
65855;SDS011;52631;42.208;24.656;2024-02-28T05:00:15;18.52;;;8.23;;
65855;SDS011;52631;42.208;24.656;2024-02-28T05:02:41;20.30;;;8.50;;
65855;SDS011;52631;42.208;24.656;2024-02-28T05:05:06;19.13;;;8.35;;
65855;SDS011;52631;42.208;24.656;2024-02-28T05:07:32;18.00;;;8.57;;
65855;SDS011;52631;42.208;24.656;2024-02-28T05:09:57;22.45;;;9.32;;
65855;SDS011;52631;42.208;24.656;2024-02-28T05:12:23;18.40;;;9.02;;
65855;SDS011;52631;42.208;24.656;2024-02-28T05:14:48;15.82;;;8.48;;
65855;SDS011;52631;42.208;24.656;2024-02-28T05:17:13;23.75;;;8.85;;
65855;SDS011;52631;42.208;24.656;2024-02-28T05:19:39;20.45;;;7.95;;
65855;SDS011;52631;42.208;24.656;2024-02-28T05:22:05;21.65;;;8.70;;
65855;SDS011;52631;42.208;24.656;2024-02-28T05:24:30;21.38;;;9.05;;
65855;SDS011;52631;42.208;24.656;2024-02-28T05:26:56;28.35;;;10.82;;
65855;SDS011;52631;42.208;24.656;2024-02-28T05:29:21;37.22;;;12.18;;
65855;SDS011;52631;42.208;24.656;2024-02-28T05:31:46;91.95;;;32.78;;
65855;SDS011;52631;42.208;24.656;2024-02-28T05:34:12;174.68;;;61.10;;
65855;SDS011;52631;42.208;24.656;2024-02-28T05:36:37;211.93;;;76.07;;
65855;SDS011;52631;42.208;24.656;2024-02-28T05:39:05;293.80;;;102.68;;
65855;SDS011;52631;42.208;24.656;2024-02-28T05:41:33;313.63;;;108.63;;
65855;SDS011;52631;42.208;24.656;2024-02-28T05:43:59;297.30;;;102.78;;
65855;SDS011;52631;42.208;24.656;2024-02-28T05:46:24;296.70;;;107.28;;
65855;SDS011;52631;42.208;24.656;2024-02-28T05:48:50;168.27;;;60.90;;
65855;SDS011;52631;42.208;24.656;2024-02-28T05:51:15;158.70;;;50.45;;
65855;SDS011;52631;42.208;24.656;2024-02-28T05:53:41;135.98;;;46.15;;
65855;SDS011;52631;42.208;24.656;2024-02-28T05:56:07;130.60;;;48.28;;
65855;SDS011;52631;42.208;24.656;2024-02-28T05:58:41;107.20;;;35.72;;
65855;SDS011;52631;42.208;24.656;2024-02-28T06:01:06;96.50;;;34.95;;
65855;SDS011;52631;42.208;24.656;2024-02-28T06:03:32;123.43;;;40.90;;
65855;SDS011;52631;42.208;24.656;2024-02-28T06:05:58;127.97;;;41.70;;
65855;SDS011;52631;42.208;24.656;2024-02-28T06:08:23;123.32;;;43.35;;
65855;SDS011;52631;42.208;24.656;2024-02-28T06:10:49;109.07;;;38.53;;
65855;SDS011;52631;42.208;24.656;2024-02-28T06:13:14;88.03;;;33.55;;
65855;SDS011;52631;42.208;24.656;2024-02-28T06:15:40;87.65;;;28.65;;
65855;SDS011;52631;42.208;24.656;2024-02-28T06:18:05;103.90;;;35.42;;
65855;SDS011;52631;42.208;24.656;2024-02-28T06:20:31;87.15;;;33.38;;
65855;SDS011;52631;42.208;24.656;2024-02-28T06:22:57;95.05;;;34.13;;
65855;SDS011;52631;42.208;24.656;2024-02-28T06:25:22;85.75;;;32.50;;
65855;SDS011;52631;42.208;24.656;2024-02-28T06:27:49;91.72;;;35.08;;
65855;SDS011;52631;42.208;24.656;2024-02-28T06:30:16;91.85;;;33.97;;
65855;SDS011;52631;42.208;24.656;2024-02-28T06:32:44;87.18;;;34.90;;
65855;SDS011;52631;42.208;24.656;2024-02-28T06:35:10;89.20;;;33.72;;
65855;SDS011;52631;42.208;24.656;2024-02-28T06:37:36;151.13;;;58.95;;
65855;SDS011;52631;42.208;24.656;2024-02-28T06:40:02;150.05;;;56.80;;
65855;SDS011;52631;42.208;24.656;2024-02-28T06:42:34;119.47;;;45.70;;
65855;SDS011;52631;42.208;24.656;2024-02-28T06:45:01;115.97;;;42.00;;
65855;SDS011;52631;42.208;24.656;2024-02-28T06:47:27;113.90;;;44.80;;
65855;SDS011;52631;42.208;24.656;2024-02-28T06:49:53;122.07;;;45.63;;
65855;SDS011;52631;42.208;24.656;2024-02-28T06:52:18;139.45;;;49.42;;
65855;SDS011;52631;42.208;24.656;2024-02-28T06:54:44;133.07;;;53.58;;
65855;SDS011;52631;42.208;24.656;2024-02-28T06:57:09;122.18;;;50.10;;
65855;SDS011;52631;42.208;24.656;2024-02-28T06:59:36;130.65;;;50.20;;
65855;SDS011;52631;42.208;24.656;2024-02-28T07:02:02;130.85;;;49.53;;
65855;SDS011;52631;42.208;24.656;2024-02-28T07:04:27;108.22;;;42.17;;
65855;SDS011;52631;42.208;24.656;2024-02-28T07:06:53;95.85;;;40.78;;
65855;SDS011;52631;42.208;24.656;2024-02-28T07:09:18;99.32;;;37.92;;
65855;SDS011;52631;42.208;24.656;2024-02-28T07:11:43;75.85;;;30.75;;
65855;SDS011;52631;42.208;24.656;2024-02-28T07:14:09;70.68;;;25.70;;
65855;SDS011;52631;42.208;24.656;2024-02-28T07:16:34;58.42;;;25.88;;
65855;SDS011;52631;42.208;24.656;2024-02-28T07:19:00;58.13;;;23.67;;
65855;SDS011;52631;42.208;24.656;2024-02-28T07:21:26;53.53;;;25.60;;
65855;SDS011;52631;42.208;24.656;2024-02-28T07:23:51;39.95;;;18.58;;
65855;SDS011;52631;42.208;24.656;2024-02-28T07:26:17;40.17;;;18.65;;
65855;SDS011;52631;42.208;24.656;2024-02-28T07:28:42;50.78;;;22.58;;
65855;SDS011;52631;42.208;24.656;2024-02-28T07:31:18;45.92;;;20.50;;
65855;SDS011;52631;42.208;24.656;2024-02-28T07:33:44;37.88;;;19.73;;
65855;SDS011;52631;42.208;24.656;2024-02-28T07:36:10;43.05;;;19.27;;
65855;SDS011;52631;42.208;24.656;2024-02-28T07:38:36;45.45;;;21.00;;
65855;SDS011;52631;42.208;24.656;2024-02-28T07:41:02;43.60;;;19.40;;
65855;SDS011;52631;42.208;24.656;2024-02-28T07:43:27;53.63;;;26.00;;
65855;SDS011;52631;42.208;24.656;2024-02-28T07:45:53;35.83;;;17.75;;
65855;SDS011;52631;42.208;24.656;2024-02-28T07:48:19;38.92;;;19.98;;
65855;SDS011;52631;42.208;24.656;2024-02-28T07:50:45;42.53;;;18.83;;
65855;SDS011;52631;42.208;24.656;2024-02-28T07:53:10;35.60;;;18.02;;
65855;SDS011;52631;42.208;24.656;2024-02-28T07:55:37;31.75;;;17.67;;
65855;SDS011;52631;42.208;24.656;2024-02-28T07:58:03;30.25;;;16.40;;
65855;SDS011;52631;42.208;24.656;2024-02-28T08:00:30;35.42;;;17.08;;
65855;SDS011;52631;42.208;24.656;2024-02-28T08:02:58;32.33;;;15.63;;
65855;SDS011;52631;42.208;24.656;2024-02-28T08:05:23;36.30;;;16.08;;
65855;SDS011;52631;42.208;24.656;2024-02-28T08:07:49;34.17;;;16.38;;
65855;SDS011;52631;42.208;24.656;2024-02-28T08:10:14;35.05;;;17.77;;
65855;SDS011;52631;42.208;24.656;2024-02-28T08:12:40;28.33;;;15.50;;
65855;SDS011;52631;42.208;24.656;2024-02-28T08:15:05;34.30;;;18.25;;
65855;SDS011;52631;42.208;24.656;2024-02-28T08:17:31;33.85;;;16.45;;
65855;SDS011;52631;42.208;24.656;2024-02-28T08:19:56;27.52;;;15.00;;
65855;SDS011;52631;42.208;24.656;2024-02-28T08:22:22;31.55;;;15.95;;
65855;SDS011;52631;42.208;24.656;2024-02-28T08:24:50;30.98;;;15.18;;
65855;SDS011;52631;42.208;24.656;2024-02-28T08:27:16;32.95;;;15.38;;
65855;SDS011;52631;42.208;24.656;2024-02-28T08:29:41;33.92;;;15.60;;
65855;SDS011;52631;42.208;24.656;2024-02-28T08:32:10;29.40;;;15.60;;
65855;SDS011;52631;42.208;24.656;2024-02-28T08:34:36;34.17;;;15.57;;
65855;SDS011;52631;42.208;24.656;2024-02-28T08:37:01;31.10;;;14.98;;
65855;SDS011;52631;42.208;24.656;2024-02-28T08:39:27;27.63;;;15.43;;
65855;SDS011;52631;42.208;24.656;2024-02-28T08:41:53;33.75;;;14.38;;
65855;SDS011;52631;42.208;24.656;2024-02-28T08:44:18;31.58;;;14.95;;
65855;SDS011;52631;42.208;24.656;2024-02-28T08:46:48;28.38;;;13.95;;
65855;SDS011;52631;42.208;24.656;2024-02-28T08:49:14;33.83;;;15.77;;
65855;SDS011;52631;42.208;24.656;2024-02-28T08:51:40;23.38;;;13.55;;
65855;SDS011;52631;42.208;24.656;2024-02-28T08:54:06;28.20;;;14.18;;
65855;SDS011;52631;42.208;24.656;2024-02-28T08:56:31;25.77;;;12.25;;
65855;SDS011;52631;42.208;24.656;2024-02-28T08:58:57;26.63;;;12.98;;
65855;SDS011;52631;42.208;24.656;2024-02-28T09:01:22;24.60;;;12.40;;
65855;SDS011;52631;42.208;24.656;2024-02-28T09:03:47;28.85;;;13.82;;
65855;SDS011;52631;42.208;24.656;2024-02-28T09:06:13;29.75;;;16.27;;
65855;SDS011;52631;42.208;24.656;2024-02-28T09:08:39;28.25;;;13.35;;
65855;SDS011;52631;42.208;24.656;2024-02-28T09:11:04;33.05;;;14.10;;
65855;SDS011;52631;42.208;24.656;2024-02-28T09:13:31;25.83;;;13.27;;
65855;SDS011;52631;42.208;24.656;2024-02-28T09:15:56;25.55;;;14.15;;
65855;SDS011;52631;42.208;24.656;2024-02-28T09:18:22;22.95;;;12.55;;
65855;SDS011;52631;42.208;24.656;2024-02-28T09:20:48;27.88;;;13.55;;
65855;SDS011;52631;42.208;24.656;2024-02-28T09:23:13;28.55;;;14.20;;
65855;SDS011;52631;42.208;24.656;2024-02-28T09:25:39;27.67;;;13.82;;
65855;SDS011;52631;42.208;24.656;2024-02-28T09:28:05;22.38;;;13.02;;
65855;SDS011;52631;42.208;24.656;2024-02-28T09:30:30;29.17;;;13.70;;
65855;SDS011;52631;42.208;24.656;2024-02-28T09:32:56;24.33;;;15.13;;
65855;SDS011;52631;42.208;24.656;2024-02-28T09:35:21;25.70;;;13.88;;
65855;SDS011;52631;42.208;24.656;2024-02-28T09:37:47;29.55;;;13.70;;
65855;SDS011;52631;42.208;24.656;2024-02-28T09:40:12;30.38;;;15.25;;
65855;SDS011;52631;42.208;24.656;2024-02-28T09:42:38;29.98;;;14.95;;
65855;SDS011;52631;42.208;24.656;2024-02-28T09:45:04;25.35;;;13.48;;
65855;SDS011;52631;42.208;24.656;2024-02-28T09:47:30;24.63;;;13.77;;
65855;SDS011;52631;42.208;24.656;2024-02-28T09:49:56;24.80;;;13.82;;
65855;SDS011;52631;42.208;24.656;2024-02-28T09:52:26;29.15;;;14.80;;
65855;SDS011;52631;42.208;24.656;2024-02-28T09:54:52;31.67;;;15.68;;
65855;SDS011;52631;42.208;24.656;2024-02-28T09:57:18;34.97;;;17.08;;
65855;SDS011;52631;42.208;24.656;2024-02-28T09:59:43;33.13;;;16.92;;
65855;SDS011;52631;42.208;24.656;2024-02-28T10:02:09;30.67;;;16.50;;
65855;SDS011;52631;42.208;24.656;2024-02-28T10:04:36;36.97;;;17.27;;
65855;SDS011;52631;42.208;24.656;2024-02-28T10:07:12;34.88;;;18.90;;
65855;SDS011;52631;42.208;24.656;2024-02-28T10:09:41;36.95;;;17.35;;
65855;SDS011;52631;42.208;24.656;2024-02-28T10:12:07;36.50;;;19.08;;
65855;SDS011;52631;42.208;24.656;2024-02-28T10:14:32;42.65;;;20.63;;
65855;SDS011;52631;42.208;24.656;2024-02-28T10:16:59;37.75;;;18.00;;
65855;SDS011;52631;42.208;24.656;2024-02-28T10:19:24;38.45;;;18.40;;
65855;SDS011;52631;42.208;24.656;2024-02-28T10:21:50;34.33;;;17.15;;
65855;SDS011;52631;42.208;24.656;2024-02-28T10:24:15;27.42;;;14.52;;
65855;SDS011;52631;42.208;24.656;2024-02-28T10:26:41;29.00;;;14.88;;
65855;SDS011;52631;42.208;24.656;2024-02-28T10:29:11;39.80;;;17.35;;
65855;SDS011;52631;42.208;24.656;2024-02-28T10:31:37;34.53;;;17.90;;
65855;SDS011;52631;42.208;24.656;2024-02-28T10:34:02;31.75;;;16.48;;
65855;SDS011;52631;42.208;24.656;2024-02-28T10:36:29;41.15;;;16.73;;
65855;SDS011;52631;42.208;24.656;2024-02-28T10:38:57;38.00;;;18.65;;
65855;SDS011;52631;42.208;24.656;2024-02-28T10:41:24;41.03;;;19.75;;
65855;SDS011;52631;42.208;24.656;2024-02-28T10:43:53;38.03;;;18.23;;
65855;SDS011;52631;42.208;24.656;2024-02-28T10:46:19;35.67;;;16.95;;
65855;SDS011;52631;42.208;24.656;2024-02-28T10:48:45;31.65;;;17.15;;
65855;SDS011;52631;42.208;24.656;2024-02-28T10:51:13;34.58;;;17.27;;
65855;SDS011;52631;42.208;24.656;2024-02-28T10:53:41;30.60;;;15.02;;
65855;SDS011;52631;42.208;24.656;2024-02-28T10:56:09;30.42;;;14.15;;
65855;SDS011;52631;42.208;24.656;2024-02-28T10:58:36;32.95;;;15.55;;
65855;SDS011;52631;42.208;24.656;2024-02-28T11:01:02;30.38;;;14.95;;
65855;SDS011;52631;42.208;24.656;2024-02-28T11:03:28;28.98;;;14.52;;
65855;SDS011;52631;42.208;24.656;2024-02-28T11:05:54;32.35;;;15.02;;
65855;SDS011;52631;42.208;24.656;2024-02-28T11:08:20;36.03;;;16.65;;
65855;SDS011;52631;42.208;24.656;2024-02-28T11:10:47;30.27;;;15.00;;
65855;SDS011;52631;42.208;24.656;2024-02-28T11:13:22;31.50;;;16.13;;
65855;SDS011;52631;42.208;24.656;2024-02-28T11:15:48;29.80;;;14.88;;
65855;SDS011;52631;42.208;24.656;2024-02-28T11:18:13;24.13;;;13.70;;
65855;SDS011;52631;42.208;24.656;2024-02-28T11:20:39;29.73;;;14.60;;
65855;SDS011;52631;42.208;24.656;2024-02-28T11:23:07;30.35;;;14.30;;
65855;SDS011;52631;42.208;24.656;2024-02-28T11:25:34;27.30;;;14.07;;
65855;SDS011;52631;42.208;24.656;2024-02-28T11:27:59;30.83;;;15.10;;
65855;SDS011;52631;42.208;24.656;2024-02-28T11:30:25;29.83;;;14.15;;
65855;SDS011;52631;42.208;24.656;2024-02-28T11:32:54;28.65;;;13.60;;
65855;SDS011;52631;42.208;24.656;2024-02-28T11:35:19;27.35;;;13.40;;
65855;SDS011;52631;42.208;24.656;2024-02-28T11:37:46;26.80;;;13.57;;
65855;SDS011;52631;42.208;24.656;2024-02-28T11:40:12;28.63;;;12.90;;
65855;SDS011;52631;42.208;24.656;2024-02-28T11:42:38;32.35;;;12.85;;
65855;SDS011;52631;42.208;24.656;2024-02-28T11:45:09;25.42;;;12.13;;
65855;SDS011;52631;42.208;24.656;2024-02-28T11:47:35;23.95;;;11.27;;
65855;SDS011;52631;42.208;24.656;2024-02-28T11:50:00;23.35;;;11.55;;
65855;SDS011;52631;42.208;24.656;2024-02-28T11:52:27;23.63;;;12.35;;
65855;SDS011;52631;42.208;24.656;2024-02-28T11:54:53;22.42;;;12.20;;
65855;SDS011;52631;42.208;24.656;2024-02-28T11:57:19;28.17;;;13.07;;
65855;SDS011;52631;42.208;24.656;2024-02-28T11:59:44;22.83;;;12.10;;
65855;SDS011;52631;42.208;24.656;2024-02-28T12:02:13;28.65;;;12.68;;
65855;SDS011;52631;42.208;24.656;2024-02-28T12:04:42;21.35;;;10.95;;
65855;SDS011;52631;42.208;24.656;2024-02-28T12:07:08;20.48;;;10.70;;
65855;SDS011;52631;42.208;24.656;2024-02-28T12:09:34;22.27;;;10.85;;
65855;SDS011;52631;42.208;24.656;2024-02-28T12:12:00;27.77;;;12.60;;
65855;SDS011;52631;42.208;24.656;2024-02-28T12:14:26;19.13;;;10.13;;
65855;SDS011;52631;42.208;24.656;2024-02-28T12:16:52;21.38;;;11.23;;
65855;SDS011;52631;42.208;24.656;2024-02-28T12:19:17;26.55;;;13.02;;
65855;SDS011;52631;42.208;24.656;2024-02-28T12:21:45;23.10;;;11.35;;
65855;SDS011;52631;42.208;24.656;2024-02-28T12:24:11;20.33;;;12.32;;
65855;SDS011;52631;42.208;24.656;2024-02-28T12:26:38;25.08;;;11.45;;
65855;SDS011;52631;42.208;24.656;2024-02-28T12:29:04;24.98;;;11.23;;
65855;SDS011;52631;42.208;24.656;2024-02-28T12:31:30;23.98;;;10.77;;
65855;SDS011;52631;42.208;24.656;2024-02-28T12:33:55;22.48;;;10.73;;
65855;SDS011;52631;42.208;24.656;2024-02-28T12:36:21;22.60;;;11.65;;
65855;SDS011;52631;42.208;24.656;2024-02-28T12:38:47;22.05;;;11.13;;
65855;SDS011;52631;42.208;24.656;2024-02-28T12:41:13;23.00;;;12.05;;
65855;SDS011;52631;42.208;24.656;2024-02-28T12:43:39;22.27;;;11.85;;
65855;SDS011;52631;42.208;24.656;2024-02-28T12:46:05;22.45;;;11.55;;
65855;SDS011;52631;42.208;24.656;2024-02-28T12:48:31;22.33;;;11.32;;
65855;SDS011;52631;42.208;24.656;2024-02-28T12:51:03;23.25;;;10.95;;
65855;SDS011;52631;42.208;24.656;2024-02-28T12:53:30;22.58;;;11.00;;
65855;SDS011;52631;42.208;24.656;2024-02-28T12:55:55;21.85;;;10.20;;
65855;SDS011;52631;42.208;24.656;2024-02-28T12:58:21;22.98;;;12.25;;
65855;SDS011;52631;42.208;24.656;2024-02-28T13:00:48;24.65;;;10.80;;
65855;SDS011;52631;42.208;24.656;2024-02-28T13:03:14;31.88;;;15.32;;
65855;SDS011;52631;42.208;24.656;2024-02-28T13:05:41;20.08;;;9.63;;
65855;SDS011;52631;42.208;24.656;2024-02-28T13:08:06;19.35;;;8.93;;
65855;SDS011;52631;42.208;24.656;2024-02-28T13:10:31;20.35;;;10.02;;
65855;SDS011;52631;42.208;24.656;2024-02-28T13:12:59;17.73;;;10.80;;
65855;SDS011;52631;42.208;24.656;2024-02-28T13:15:25;20.85;;;9.90;;
65855;SDS011;52631;42.208;24.656;2024-02-28T13:17:50;24.55;;;10.77;;
65855;SDS011;52631;42.208;24.656;2024-02-28T13:20:17;21.77;;;9.52;;
65855;SDS011;52631;42.208;24.656;2024-02-28T13:22:43;22.52;;;9.20;;
65855;SDS011;52631;42.208;24.656;2024-02-28T13:25:08;18.83;;;9.05;;
65855;SDS011;52631;42.208;24.656;2024-02-28T13:27:34;20.00;;;9.18;;
65855;SDS011;52631;42.208;24.656;2024-02-28T13:30:00;24.63;;;9.88;;
65855;SDS011;52631;42.208;24.656;2024-02-28T13:32:25;20.65;;;9.75;;
65855;SDS011;52631;42.208;24.656;2024-02-28T13:34:52;22.08;;;10.07;;
65855;SDS011;52631;42.208;24.656;2024-02-28T13:37:17;21.23;;;10.52;;
65855;SDS011;52631;42.208;24.656;2024-02-28T13:39:43;17.00;;;9.82;;
65855;SDS011;52631;42.208;24.656;2024-02-28T13:42:08;20.02;;;10.15;;
65855;SDS011;52631;42.208;24.656;2024-02-28T13:44:34;19.00;;;9.65;;
65855;SDS011;52631;42.208;24.656;2024-02-28T13:47:01;21.10;;;9.60;;
65855;SDS011;52631;42.208;24.656;2024-02-28T13:49:28;21.33;;;9.93;;
65855;SDS011;52631;42.208;24.656;2024-02-28T13:51:53;18.50;;;9.10;;
65855;SDS011;52631;42.208;24.656;2024-02-28T13:54:19;20.00;;;9.38;;
65855;SDS011;52631;42.208;24.656;2024-02-28T13:56:45;21.70;;;10.50;;
65855;SDS011;52631;42.208;24.656;2024-02-28T13:59:10;21.38;;;10.00;;
65855;SDS011;52631;42.208;24.656;2024-02-28T14:01:35;21.52;;;10.27;;
65855;SDS011;52631;42.208;24.656;2024-02-28T14:04:01;20.13;;;10.30;;